Etusivu
METAR-TAF:

METAR-TAF

Lentoasemat :

Kittilä, Suomi

Kittilän lentoasema

Leveyspiiri: 67-42N, Pituuspiiri: 024-51E, korkeus merenpinnasta: 196 m

Tämänhetkinen sää

Tämä raportti tehtiin 23 minuuttia sitten, kello 20.50 UTC
Tuuli 1 kn luoteesta
Lämpötila 9°C
Kosteus 87%
Ilmanpaine 1017 hPa
Näkyvyys 10 km tai enemmän
ei pilviä alle 1500 m:ssä eikä cumulonimbus-pilviä

METAR: EFKT 172050Z AUTO 32001KT CAVOK 09/07 Q1017

Aika: 00:13 (21:13 UTC)

Sääennuste

Tämä raportti tehtiin 15 tuntia ja 40 minuuttia sitten, kello 05.33 UTC
Ennuste voimassa 17. päivästä klo 06 UTC - 17. päivään klo 10 UTC
Tuuli 7 kn lännestä/lounaasta
Näkyvyys 10 km tai enemmän
Hajonneita pilviä 900 ft:n korkeudessa
Tulossa
17. päivästä klo 06 UTC - 17. päivään klo 07 UTC
Muutamia pilviä 1000 ft:n korkeudessa
Hajanaisia pilviä 2000 ft:n korkeudessa

TAF: EFKT 170533Z 1706/1710 24007KT 9999 BKN009 BECMG 1706/1707 FEW010 SCT020

Säähavainnot ja -ennusteet yli 4000 lentoasemalta (METAR- ja TAF-raportit).

Käytössä olevat sääasemat on merkitty karttaan keltaisilla ja punaisilla pisteillä.

Aseta hiiri pisteen päälle nähdäksesi sääaseman nimen.

Klikkaa sitten nähdäksesi säähavainnot ja -ennusteet.

Kartan vaihtaminen: klikkaa mustalla rastilla varustettuja vihreitä pisteitä, niin voit zoomata sisään; viivalla varustettua vihreää pistettä, niin voit zoomata ulos tai vihreitä nuolia, niin pääset viereisille kartoille.


METAR-TAF: